Terminal Aerodrome Forecast
Issued by NWS Upton, NY

Home | Current Version | Previous Version | Text Only | Print | Product List | Glossary On
Versions: 1 2 3 4 5 6 7 8 9 10 11 12 13 14 15 16 17 18 19 20 21 22 23 24 25 26 27 28 29 30 31 32 33 34 35 36 37 38
000
FTUS41 KOKX 250831 AAA
TAFLGA
TAF AMD
KLGA 250831Z 2509/2612 06014KT 3SM RA BR OVC006
      TEMPO 2513/2516 1SM +RA BR SCT006 OVC012
     FM251600 06016G21KT 2SM SHRA BR OVC006
     FM251800 06008KT 3SM -SHRA BR OVC006
     FM252100 VRB05KT 1/2SM -SHRA FG OVC004
     FM260700 29007KT 3SM BR SCT007 OVC015
     FM261000 30012KT P6SM FEW010 BKN025=

USA.gov is the U.S. government's official web portal to all federal, state and local government web resources and services.